sensor_id;sensor_type;location;lat;lon;timestamp;pressure;altitude;pressure_sealevel;temperature;humidity
19108;BME280;9686;48.832;9.126;2023-12-20T00:00:38;98212.03;;;8.43;nan
19108;BME280;9686;48.832;9.126;2023-12-20T00:03:04;98212.03;;;8.38;nan
19108;BME280;9686;48.832;9.126;2023-12-20T00:05:30;98206.84;;;8.40;nan
19108;BME280;9686;48.832;9.126;2023-12-20T00:07:57;98212.91;;;8.40;nan
19108;BME280;9686;48.832;9.126;2023-12-20T00:10:22;98205.13;;;8.45;nan
19108;BME280;9686;48.832;9.126;2023-12-20T00:12:47;98210.22;;;8.32;nan
19108;BME280;9686;48.832;9.126;2023-12-20T00:15:13;98207.63;;;8.29;nan
19108;BME280;9686;48.832;9.126;2023-12-20T00:17:38;98206.75;;;8.23;nan
19108;BME280;9686;48.832;9.126;2023-12-20T00:20:04;98200.69;;;8.27;nan
19108;BME280;9686;48.832;9.126;2023-12-20T00:22:30;98198.09;;;8.24;nan
19108;BME280;9686;48.832;9.126;2023-12-20T00:24:55;98201.56;;;8.27;nan
19108;BME280;9686;48.832;9.126;2023-12-20T00:27:21;98202.41;;;8.17;nan
19108;BME280;9686;48.832;9.126;2023-12-20T00:29:46;98200.69;;;8.19;nan
19108;BME280;9686;48.832;9.126;2023-12-20T00:32:14;98197.16;;;8.05;nan
19108;BME280;9686;48.832;9.126;2023-12-20T00:34:40;98204.91;;;7.93;nan
19108;BME280;9686;48.832;9.126;2023-12-20T00:37:05;98203.97;;;7.80;nan
19108;BME280;9686;48.832;9.126;2023-12-20T00:39:31;98203.09;;;7.80;nan
19108;BME280;9686;48.832;9.126;2023-12-20T00:41:56;98210.94;;;7.81;nan
19108;BME280;9686;48.832;9.126;2023-12-20T00:44:21;98208.34;;;7.83;nan
19108;BME280;9686;48.832;9.126;2023-12-20T00:46:46;98208.28;;;7.78;nan
19108;BME280;9686;48.832;9.126;2023-12-20T00:49:12;98210.00;;;7.76;nan
19108;BME280;9686;48.832;9.126;2023-12-20T00:51:37;98205.69;;;7.80;nan
19108;BME280;9686;48.832;9.126;2023-12-20T00:54:02;98210.88;;;7.73;nan
19108;BME280;9686;48.832;9.126;2023-12-20T00:56:28;98209.13;;;7.72;nan
19108;BME280;9686;48.832;9.126;2023-12-20T00:58:53;98215.16;;;7.67;nan
19108;BME280;9686;48.832;9.126;2023-12-20T01:01:18;98214.28;;;7.63;nan
19108;BME280;9686;48.832;9.126;2023-12-20T01:03:43;98207.38;;;7.67;nan
19108;BME280;9686;48.832;9.126;2023-12-20T01:06:09;98209.03;;;7.54;nan
19108;BME280;9686;48.832;9.126;2023-12-20T01:08:34;98215.06;;;7.52;nan
19108;BME280;9686;48.832;9.126;2023-12-20T01:11:00;98224.50;;;7.40;nan
19108;BME280;9686;48.832;9.126;2023-12-20T01:13:25;98224.50;;;7.37;nan
19108;BME280;9686;48.832;9.126;2023-12-20T01:15:50;98227.06;;;7.33;nan
19108;BME280;9686;48.832;9.126;2023-12-20T01:18:16;98227.88;;;7.27;nan
19108;BME280;9686;48.832;9.126;2023-12-20T01:20:41;98225.34;;;7.36;nan
19108;BME280;9686;48.832;9.126;2023-12-20T01:23:06;98222.72;;;7.30;nan
19108;BME280;9686;48.832;9.126;2023-12-20T01:25:31;98234.78;;;7.27;nan
19108;BME280;9686;48.832;9.126;2023-12-20T01:27:57;98227.84;;;7.24;nan
19108;BME280;9686;48.832;9.126;2023-12-20T01:30:22;98240.72;;;7.12;nan
19108;BME280;9686;48.832;9.126;2023-12-20T01:32:47;98235.53;;;7.12;nan
19108;BME280;9686;48.832;9.126;2023-12-20T01:35:13;98241.59;;;7.14;nan
19108;BME280;9686;48.832;9.126;2023-12-20T01:37:38;98242.50;;;7.18;nan
19108;BME280;9686;48.832;9.126;2023-12-20T01:40:04;98244.19;;;7.14;nan
19108;BME280;9686;48.832;9.126;2023-12-20T01:42:29;98245.06;;;7.13;nan
19108;BME280;9686;48.832;9.126;2023-12-20T01:44:55;98243.34;;;7.15;nan
19108;BME280;9686;48.832;9.126;2023-12-20T01:47:20;98239.88;;;7.15;nan
19108;BME280;9686;48.832;9.126;2023-12-20T01:49:46;98242.63;;;7.31;nan
19108;BME280;9686;48.832;9.126;2023-12-20T01:52:12;98239.06;;;7.23;nan
19108;BME280;9686;48.832;9.126;2023-12-20T01:54:38;98225.34;;;7.33;nan
19108;BME280;9686;48.832;9.126;2023-12-20T01:57:05;98229.69;;;7.40;nan
19108;BME280;9686;48.832;9.126;2023-12-20T01:59:31;98230.44;;;7.23;nan
19108;BME280;9686;48.832;9.126;2023-12-20T02:01:56;98229.53;;;7.19;nan
19108;BME280;9686;48.832;9.126;2023-12-20T02:04:22;98237.34;;;7.25;nan
19108;BME280;9686;48.832;9.126;2023-12-20T02:06:48;98237.31;;;7.21;nan
19108;BME280;9686;48.832;9.126;2023-12-20T02:09:15;98224.34;;;7.18;nan
19108;BME280;9686;48.832;9.126;2023-12-20T02:11:40;98239.03;;;7.19;nan
19108;BME280;9686;48.832;9.126;2023-12-20T02:14:06;98224.41;;;7.25;nan
19108;BME280;9686;48.832;9.126;2023-12-20T02:16:31;98231.25;;;7.16;nan
19108;BME280;9686;48.832;9.126;2023-12-20T02:18:56;98228.78;;;7.32;nan
19108;BME280;9686;48.832;9.126;2023-12-20T02:21:39;98232.13;;;7.19;nan
19108;BME280;9686;48.832;9.126;2023-12-20T02:24:05;98233.88;;;7.22;nan
19108;BME280;9686;48.832;9.126;2023-12-20T02:26:32;98229.47;;;7.08;nan
19108;BME280;9686;48.832;9.126;2023-12-20T02:28:58;98232.09;;;7.15;nan
19108;BME280;9686;48.832;9.126;2023-12-20T02:31:23;98234.72;;;7.16;nan
19108;BME280;9686;48.832;9.126;2023-12-20T02:33:49;98238.16;;;7.14;nan
19108;BME280;9686;48.832;9.126;2023-12-20T02:36:14;98236.38;;;7.06;nan
19108;BME280;9686;48.832;9.126;2023-12-20T02:38:40;98232.06;;;7.07;nan
19108;BME280;9686;48.832;9.126;2023-12-20T02:41:05;98238.13;;;7.10;nan
19108;BME280;9686;48.832;9.126;2023-12-20T02:43:30;98236.41;;;7.14;nan
19108;BME280;9686;48.832;9.126;2023-12-20T02:45:56;98236.50;;;7.28;nan
19108;BME280;9686;48.832;9.126;2023-12-20T02:48:21;98232.16;;;7.22;nan
19108;BME280;9686;48.832;9.126;2023-12-20T02:50:47;98227.78;;;7.17;nan
19108;BME280;9686;48.832;9.126;2023-12-20T02:53:14;98233.81;;;7.11;nan
19108;BME280;9686;48.832;9.126;2023-12-20T02:55:39;98238.13;;;7.10;nan
19108;BME280;9686;48.832;9.126;2023-12-20T02:58:05;98230.38;;;7.15;nan
19108;BME280;9686;48.832;9.126;2023-12-20T03:00:30;98230.34;;;7.10;nan
19108;BME280;9686;48.832;9.126;2023-12-20T03:02:55;98236.41;;;7.11;nan
19108;BME280;9686;48.832;9.126;2023-12-20T03:05:20;98238.97;;;7.09;nan
19108;BME280;9686;48.832;9.126;2023-12-20T03:07:46;98238.16;;;7.14;nan
19108;BME280;9686;48.832;9.126;2023-12-20T03:10:11;98233.78;;;7.08;nan
19108;BME280;9686;48.832;9.126;2023-12-20T03:12:36;98240.66;;;7.04;nan
19108;BME280;9686;48.832;9.126;2023-12-20T03:15:02;98238.94;;;7.03;nan
19108;BME280;9686;48.832;9.126;2023-12-20T03:17:27;98244.91;;;6.96;nan
19108;BME280;9686;48.832;9.126;2023-12-20T03:19:52;98249.16;;;6.90;nan
19108;BME280;9686;48.832;9.126;2023-12-20T03:22:18;98247.41;;;6.86;nan
19108;BME280;9686;48.832;9.126;2023-12-20T03:24:43;98240.50;;;6.85;nan
19108;BME280;9686;48.832;9.126;2023-12-20T03:27:08;98253.47;;;6.86;nan
19108;BME280;9686;48.832;9.126;2023-12-20T03:29:34;98246.50;;;6.79;nan
19108;BME280;9686;48.832;9.126;2023-12-20T03:31:59;98249.03;;;6.76;nan
19108;BME280;9686;48.832;9.126;2023-12-20T03:34:24;98253.38;;;6.77;nan
19108;BME280;9686;48.832;9.126;2023-12-20T03:36:49;98249.94;;;6.79;nan
19108;BME280;9686;48.832;9.126;2023-12-20T03:39:15;98249.09;;;6.80;nan
19108;BME280;9686;48.832;9.126;2023-12-20T03:41:40;98244.72;;;6.76;nan
19108;BME280;9686;48.832;9.126;2023-12-20T03:44:05;98253.38;;;6.77;nan
19108;BME280;9686;48.832;9.126;2023-12-20T03:46:31;98250.81;;;6.78;nan
19108;BME280;9686;48.832;9.126;2023-12-20T03:48:56;98255.97;;;6.77;nan
19108;BME280;9686;48.832;9.126;2023-12-20T03:51:22;98267.16;;;6.74;nan
19108;BME280;9686;48.832;9.126;2023-12-20T03:53:47;98255.91;;;6.74;nan
19108;BME280;9686;48.832;9.126;2023-12-20T03:56:13;98253.38;;;6.77;nan
19108;BME280;9686;48.832;9.126;2023-12-20T03:58:38;98255.06;;;6.75;nan
19108;BME280;9686;48.832;9.126;2023-12-20T04:01:03;98250.66;;;6.65;nan
19108;BME280;9686;48.832;9.126;2023-12-20T04:03:33;98258.50;;;6.72;nan
19108;BME280;9686;48.832;9.126;2023-12-20T04:05:59;98256.72;;;6.68;nan
19108;BME280;9686;48.832;9.126;2023-12-20T04:08:24;98255.03;;;6.70;nan
19108;BME280;9686;48.832;9.126;2023-12-20T04:10:49;98255.84;;;6.66;nan
19108;BME280;9686;48.832;9.126;2023-12-20T04:13:15;98255.00;;;6.67;nan
19108;BME280;9686;48.832;9.126;2023-12-20T04:15:40;98249.00;;;6.71;nan
19108;BME280;9686;48.832;9.126;2023-12-20T04:18:05;98254.09;;;6.65;nan
19108;BME280;9686;48.832;9.126;2023-12-20T04:20:31;98261.09;;;6.72;nan
19108;BME280;9686;48.832;9.126;2023-12-20T04:22:56;98277.38;;;6.59;nan
19108;BME280;9686;48.832;9.126;2023-12-20T04:25:21;98275.69;;;6.66;nan
19108;BME280;9686;48.832;9.126;2023-12-20T04:27:46;98281.66;;;6.57;nan
19108;BME280;9686;48.832;9.126;2023-12-20T04:30:12;98274.84;;;6.68;nan
19108;BME280;9686;48.832;9.126;2023-12-20T04:32:37;98274.91;;;6.73;nan
19108;BME280;9686;48.832;9.126;2023-12-20T04:35:03;98271.44;;;6.72;nan
19108;BME280;9686;48.832;9.126;2023-12-20T04:37:28;98276.63;;;6.74;nan
19108;BME280;9686;48.832;9.126;2023-12-20T04:39:54;98276.63;;;6.72;nan
19108;BME280;9686;48.832;9.126;2023-12-20T04:42:19;98290.38;;;6.67;nan
19108;BME280;9686;48.832;9.126;2023-12-20T04:44:45;98284.41;;;6.72;nan
19108;BME280;9686;48.832;9.126;2023-12-20T04:47:10;98295.63;;;6.73;nan
19108;BME280;9686;48.832;9.126;2023-12-20T04:49:35;98283.53;;;6.73;nan
19108;BME280;9686;48.832;9.126;2023-12-20T04:52:01;98289.69;;;6.82;nan
19108;BME280;9686;48.832;9.126;2023-12-20T04:54:26;98289.72;;;6.85;nan
19108;BME280;9686;48.832;9.126;2023-12-20T04:56:51;98294.94;;;6.88;nan
19108;BME280;9686;48.832;9.126;2023-12-20T04:59:16;98302.69;;;6.86;nan
19108;BME280;9686;48.832;9.126;2023-12-20T05:01:42;98304.41;;;6.86;nan
19108;BME280;9686;48.832;9.126;2023-12-20T05:04:07;98301.84;;;6.90;nan
19108;BME280;9686;48.832;9.126;2023-12-20T05:06:32;98303.59;;;6.90;nan
19108;BME280;9686;48.832;9.126;2023-12-20T05:08:58;98309.66;;;6.95;nan
19108;BME280;9686;48.832;9.126;2023-12-20T05:11:23;98317.41;;;6.90;nan
19108;BME280;9686;48.832;9.126;2023-12-20T05:13:48;98305.31;;;6.91;nan
19108;BME280;9686;48.832;9.126;2023-12-20T05:16:14;98311.38;;;6.91;nan
19108;BME280;9686;48.832;9.126;2023-12-20T05:18:39;98315.69;;;6.92;nan
19108;BME280;9686;48.832;9.126;2023-12-20T05:21:05;98324.31;;;6.91;nan
19108;BME280;9686;48.832;9.126;2023-12-20T05:23:30;98316.63;;;7.00;nan
19108;BME280;9686;48.832;9.126;2023-12-20T05:25:55;98310.50;;;6.91;nan
19108;BME280;9686;48.832;9.126;2023-12-20T05:28:21;98317.44;;;6.93;nan
19108;BME280;9686;48.832;9.126;2023-12-20T05:30:46;98320.03;;;6.93;nan
19108;BME280;9686;48.832;9.126;2023-12-20T05:33:11;98338.16;;;6.93;nan
19108;BME280;9686;48.832;9.126;2023-12-20T05:35:37;98340.66;;;6.84;nan
19108;BME280;9686;48.832;9.126;2023-12-20T05:38:02;98341.59;;;6.91;nan
19108;BME280;9686;48.832;9.126;2023-12-20T05:40:27;98342.47;;;6.91;nan
19108;BME280;9686;48.832;9.126;2023-12-20T05:42:53;98340.75;;;6.93;nan
19108;BME280;9686;48.832;9.126;2023-12-20T05:45:19;98348.56;;;6.96;nan
19108;BME280;9686;48.832;9.126;2023-12-20T05:47:44;98351.09;;;6.92;nan
19108;BME280;9686;48.832;9.126;2023-12-20T05:50:09;98366.56;;;6.84;nan
19108;BME280;9686;48.832;9.126;2023-12-20T05:52:35;98357.97;;;6.88;nan
19108;BME280;9686;48.832;9.126;2023-12-20T05:55:00;98365.78;;;6.91;nan
19108;BME280;9686;48.832;9.126;2023-12-20T05:57:28;98363.16;;;6.87;nan
19108;BME280;9686;48.832;9.126;2023-12-20T05:59:54;98364.88;;;6.86;nan
19108;BME280;9686;48.832;9.126;2023-12-20T06:02:19;98376.16;;;6.93;nan
19108;BME280;9686;48.832;9.126;2023-12-20T06:04:44;98377.78;;;6.83;nan
19108;BME280;9686;48.832;9.126;2023-12-20T06:07:13;98383.84;;;6.84;nan
19108;BME280;9686;48.832;9.126;2023-12-20T06:09:39;98390.81;;;6.91;nan
19108;BME280;9686;48.832;9.126;2023-12-20T06:12:04;98376.94;;;6.84;nan
19108;BME280;9686;48.832;9.126;2023-12-20T06:14:30;98389.03;;;6.84;nan
19108;BME280;9686;48.832;9.126;2023-12-20T06:16:56;98385.59;;;6.85;nan
19108;BME280;9686;48.832;9.126;2023-12-20T06:19:22;98389.03;;;6.84;nan
19108;BME280;9686;48.832;9.126;2023-12-20T06:21:48;98389.97;;;6.90;nan
19108;BME280;9686;48.832;9.126;2023-12-20T06:24:13;98388.19;;;6.85;nan
19108;BME280;9686;48.832;9.126;2023-12-20T06:26:39;98389.91;;;6.86;nan
19108;BME280;9686;48.832;9.126;2023-12-20T06:29:04;98382.13;;;6.84;nan
19108;BME280;9686;48.832;9.126;2023-12-20T06:31:29;98383.94;;;6.94;nan
19108;BME280;9686;48.832;9.126;2023-12-20T06:33:54;98376.97;;;6.87;nan
19108;BME280;9686;48.832;9.126;2023-12-20T06:36:23;98376.16;;;6.93;nan
19108;BME280;9686;48.832;9.126;2023-12-20T06:38:49;98383.06;;;6.91;nan
19108;BME280;9686;48.832;9.126;2023-12-20T06:41:15;98386.47;;;6.87;nan
19108;BME280;9686;48.832;9.126;2023-12-20T06:43:40;98389.94;;;6.87;nan
19108;BME280;9686;48.832;9.126;2023-12-20T06:46:06;98395.97;;;6.88;nan
19108;BME280;9686;48.832;9.126;2023-12-20T06:48:31;98397.63;;;6.79;nan
19108;BME280;9686;48.832;9.126;2023-12-20T06:50:59;98399.38;;;6.84;nan
19108;BME280;9686;48.832;9.126;2023-12-20T06:53:24;98402.06;;;6.91;nan
19108;BME280;9686;48.832;9.126;2023-12-20T06:55:50;98407.31;;;6.97;nan
19108;BME280;9686;48.832;9.126;2023-12-20T06:58:15;98403.78;;;6.91;nan
19108;BME280;9686;48.832;9.126;2023-12-20T07:00:40;98407.25;;;6.91;nan
19108;BME280;9686;48.832;9.126;2023-12-20T07:03:06;98408.97;;;6.92;nan
19108;BME280;9686;48.832;9.126;2023-12-20T07:05:31;98410.75;;;6.96;nan
19108;BME280;9686;48.832;9.126;2023-12-20T07:07:56;98420.25;;;6.97;nan
19108;BME280;9686;48.832;9.126;2023-12-20T07:10:21;98415.06;;;6.96;nan
19108;BME280;9686;48.832;9.126;2023-12-20T07:12:47;98414.97;;;6.88;nan
19108;BME280;9686;48.832;9.126;2023-12-20T07:15:13;98428.03;;;6.96;nan
19108;BME280;9686;48.832;9.126;2023-12-20T07:17:39;98437.50;;;6.94;nan
19108;BME280;9686;48.832;9.126;2023-12-20T07:20:05;98433.06;;;6.84;nan
19108;BME280;9686;48.832;9.126;2023-12-20T07:22:31;98443.44;;;6.85;nan
19108;BME280;9686;48.832;9.126;2023-12-20T07:24:58;98453.81;;;6.85;nan
19108;BME280;9686;48.832;9.126;2023-12-20T07:27:23;98458.09;;;6.82;nan
19108;BME280;9686;48.832;9.126;2023-12-20T07:29:49;98448.63;;;6.85;nan
19108;BME280;9686;48.832;9.126;2023-12-20T07:32:14;98451.25;;;6.88;nan
19108;BME280;9686;48.832;9.126;2023-12-20T07:34:39;98447.78;;;6.86;nan
19108;BME280;9686;48.832;9.126;2023-12-20T07:37:04;98451.19;;;6.82;nan
19108;BME280;9686;48.832;9.126;2023-12-20T07:39:30;98454.59;;;6.78;nan
19108;BME280;9686;48.832;9.126;2023-12-20T07:41:55;98464.00;;;6.73;nan
19108;BME280;9686;48.832;9.126;2023-12-20T07:44:20;98457.88;;;6.66;nan
19108;BME280;9686;48.832;9.126;2023-12-20T07:46:46;98454.50;;;6.73;nan
19108;BME280;9686;48.832;9.126;2023-12-20T07:49:11;98445.81;;;6.68;nan
19108;BME280;9686;48.832;9.126;2023-12-20T07:51:37;98451.88;;;6.70;nan
19108;BME280;9686;48.832;9.126;2023-12-20T07:54:02;98455.13;;;6.53;nan
19108;BME280;9686;48.832;9.126;2023-12-20T07:56:28;98449.81;;;6.45;nan
19108;BME280;9686;48.832;9.126;2023-12-20T07:58:53;98451.59;;;6.49;nan
19108;BME280;9686;48.832;9.126;2023-12-20T08:01:19;98467.09;;;6.47;nan
19108;BME280;9686;48.832;9.126;2023-12-20T08:03:44;98466.13;;;6.38;nan
19108;BME280;9686;48.832;9.126;2023-12-20T08:06:11;98475.56;;;6.34;nan
19108;BME280;9686;48.832;9.126;2023-12-20T08:08:36;98470.38;;;6.34;nan
19108;BME280;9686;48.832;9.126;2023-12-20T08:11:01;98483.25;;;6.30;nan
19108;BME280;9686;48.832;9.126;2023-12-20T08:13:28;98484.09;;;6.27;nan
19108;BME280;9686;48.832;9.126;2023-12-20T08:15:53;98484.84;;;6.22;nan
19108;BME280;9686;48.832;9.126;2023-12-20T08:18:19;98483.97;;;6.21;nan
19108;BME280;9686;48.832;9.126;2023-12-20T08:20:44;98491.75;;;6.23;nan
19108;BME280;9686;48.832;9.126;2023-12-20T08:23:09;98497.94;;;6.31;nan
19108;BME280;9686;48.832;9.126;2023-12-20T08:25:35;98495.22;;;6.23;nan
19108;BME280;9686;48.832;9.126;2023-12-20T08:28:02;98499.31;;;6.09;nan
19108;BME280;9686;48.832;9.126;2023-12-20T08:30:28;98496.78;;;6.12;nan
19108;BME280;9686;48.832;9.126;2023-12-20T08:32:53;98499.31;;;6.09;nan
19108;BME280;9686;48.832;9.126;2023-12-20T08:35:18;98495.84;;;6.08;nan
19108;BME280;9686;48.832;9.126;2023-12-20T08:37:45;98494.09;;;6.06;nan
19108;BME280;9686;48.832;9.126;2023-12-20T08:40:10;98500.09;;;6.03;nan
19108;BME280;9686;48.832;9.126;2023-12-20T08:42:35;98509.53;;;6.00;nan
19108;BME280;9686;48.832;9.126;2023-12-20T08:45:01;98508.81;;;6.10;nan
19108;BME280;9686;48.832;9.126;2023-12-20T08:47:26;98508.84;;;6.11;nan
19108;BME280;9686;48.832;9.126;2023-12-20T08:49:52;98512.41;;;6.19;nan
19108;BME280;9686;48.832;9.126;2023-12-20T08:52:24;98511.72;;;6.28;nan
19108;BME280;9686;48.832;9.126;2023-12-20T08:54:50;98528.06;;;6.26;nan
19108;BME280;9686;48.832;9.126;2023-12-20T08:57:21;98527.31;;;6.33;nan
19108;BME280;9686;48.832;9.126;2023-12-20T08:59:49;98526.53;;;6.38;nan
19108;BME280;9686;48.832;9.126;2023-12-20T09:02:14;98511.06;;;6.43;nan
19108;BME280;9686;48.832;9.126;2023-12-20T09:04:40;98505.13;;;6.50;nan
19108;BME280;9686;48.832;9.126;2023-12-20T09:07:05;98506.06;;;6.54;nan
19108;BME280;9686;48.832;9.126;2023-12-20T09:09:32;98508.66;;;6.54;nan
19108;BME280;9686;48.832;9.126;2023-12-20T09:11:58;98506.22;;;6.64;nan
19108;BME280;9686;48.832;9.126;2023-12-20T09:14:23;98507.13;;;6.68;nan
19108;BME280;9686;48.832;9.126;2023-12-20T09:16:49;98502.81;;;6.70;nan
19108;BME280;9686;48.832;9.126;2023-12-20T09:19:18;98505.50;;;6.76;nan
19108;BME280;9686;48.832;9.126;2023-12-20T09:21:44;98506.34;;;6.75;nan
19108;BME280;9686;48.832;9.126;2023-12-20T09:24:09;98501.31;;;6.84;nan
19108;BME280;9686;48.832;9.126;2023-12-20T09:26:35;98510.09;;;6.97;nan
19108;BME280;9686;48.832;9.126;2023-12-20T09:29:00;98504.03;;;6.95;nan
19108;BME280;9686;48.832;9.126;2023-12-20T09:31:25;98505.75;;;6.94;nan
19108;BME280;9686;48.832;9.126;2023-12-20T09:33:51;98510.97;;;6.97;nan
19108;BME280;9686;48.832;9.126;2023-12-20T09:36:16;98498.06;;;7.02;nan
19108;BME280;9686;48.832;9.126;2023-12-20T09:38:41;98503.34;;;7.08;nan
19108;BME280;9686;48.832;9.126;2023-12-20T09:41:07;98515.53;;;7.15;nan
19108;BME280;9686;48.832;9.126;2023-12-20T09:43:35;98519.72;;;7.05;nan
19108;BME280;9686;48.832;9.126;2023-12-20T09:46:05;98518.16;;;7.20;nan
19108;BME280;9686;48.832;9.126;2023-12-20T09:48:31;98509.56;;;7.22;nan
19108;BME280;9686;48.832;9.126;2023-12-20T09:50:56;98517.47;;;7.33;nan
19108;BME280;9686;48.832;9.126;2023-12-20T09:53:22;98521.00;;;7.38;nan
19108;BME280;9686;48.832;9.126;2023-12-20T09:55:57;98515.06;;;7.51;nan
19108;BME280;9686;48.832;9.126;2023-12-20T09:58:24;98511.63;;;7.54;nan
19108;BME280;9686;48.832;9.126;2023-12-20T10:00:49;98512.41;;;7.45;nan
19108;BME280;9686;48.832;9.126;2023-12-20T10:03:15;98506.38;;;7.46;nan
19108;BME280;9686;48.832;9.126;2023-12-20T10:05:43;98505.63;;;7.55;nan
19108;BME280;9686;48.832;9.126;2023-12-20T10:08:09;98518.50;;;7.47;nan
19108;BME280;9686;48.832;9.126;2023-12-20T10:10:34;98522.72;;;7.39;nan
19108;BME280;9686;48.832;9.126;2023-12-20T10:13:10;98513.25;;;7.41;nan
19108;BME280;9686;48.832;9.126;2023-12-20T10:15:36;98513.16;;;7.33;nan
19108;BME280;9686;48.832;9.126;2023-12-20T10:18:02;98513.03;;;7.26;nan
19108;BME280;9686;48.832;9.126;2023-12-20T10:20:29;98509.38;;;7.07;nan
19108;BME280;9686;48.832;9.126;2023-12-20T10:22:58;98505.88;;;7.03;nan
19108;BME280;9686;48.832;9.126;2023-12-20T10:25:24;98511.13;;;7.09;nan
19108;BME280;9686;48.832;9.126;2023-12-20T10:27:51;98504.16;;;7.04;nan
19108;BME280;9686;48.832;9.126;2023-12-20T10:30:33;98491.34;;;7.18;nan
19108;BME280;9686;48.832;9.126;2023-12-20T10:32:58;98486.13;;;7.15;nan
19108;BME280;9686;48.832;9.126;2023-12-20T10:35:23;98494.81;;;7.18;nan
19108;BME280;9686;48.832;9.126;2023-12-20T10:37:50;98495.72;;;7.22;nan
19108;BME280;9686;48.832;9.126;2023-12-20T10:40:16;98477.72;;;7.32;nan
19108;BME280;9686;48.832;9.126;2023-12-20T10:42:42;98491.44;;;7.25;nan
19108;BME280;9686;48.832;9.126;2023-12-20T10:45:08;98481.81;;;7.15;nan
19108;BME280;9686;48.832;9.126;2023-12-20T10:47:34;98486.13;;;7.13;nan
19108;BME280;9686;48.832;9.126;2023-12-20T10:50:01;98486.94;;;7.07;nan
19108;BME280;9686;48.832;9.126;2023-12-20T10:52:27;98486.88;;;7.03;nan
19108;BME280;9686;48.832;9.126;2023-12-20T10:54:54;98480.88;;;7.07;nan
19108;BME280;9686;48.832;9.126;2023-12-20T10:57:20;98485.25;;;7.13;nan
19108;BME280;9686;48.832;9.126;2023-12-20T10:59:49;98490.28;;;7.00;nan
19108;BME280;9686;48.832;9.126;2023-12-20T11:02:18;98490.38;;;7.06;nan
19108;BME280;9686;48.832;9.126;2023-12-20T11:04:59;98484.41;;;7.15;nan
19108;BME280;9686;48.832;9.126;2023-12-20T11:07:36;98483.53;;;7.15;nan
19108;BME280;9686;48.832;9.126;2023-12-20T11:10:17;98493.16;;;7.25;nan
19108;BME280;9686;48.832;9.126;2023-12-20T11:12:50;98480.28;;;7.29;nan
19108;BME280;9686;48.832;9.126;2023-12-20T11:15:18;98467.34;;;7.32;nan
19108;BME280;9686;48.832;9.126;2023-12-20T11:17:45;98465.59;;;7.31;nan
19108;BME280;9686;48.832;9.126;2023-12-20T11:20:11;98472.50;;;7.31;nan
19108;BME280;9686;48.832;9.126;2023-12-20T11:22:37;98460.34;;;7.27;nan
19108;BME280;9686;48.832;9.126;2023-12-20T11:25:09;98463.06;;;7.37;nan
19108;BME280;9686;48.832;9.126;2023-12-20T11:27:41;98457.94;;;7.45;nan
19108;BME280;9686;48.832;9.126;2023-12-20T11:30:08;98458.84;;;7.50;nan
19108;BME280;9686;48.832;9.126;2023-12-20T11:32:35;98462.28;;;7.45;nan
19108;BME280;9686;48.832;9.126;2023-12-20T11:37:35;98468.47;;;7.59;nan
19108;BME280;9686;48.832;9.126;2023-12-20T11:40:04;98465.00;;;7.55;nan
19108;BME280;9686;48.832;9.126;2023-12-20T11:42:37;98464.06;;;7.52;nan
19108;BME280;9686;48.832;9.126;2023-12-20T11:45:03;98459.72;;;7.51;nan
19108;BME280;9686;48.832;9.126;2023-12-20T11:47:29;98469.31;;;7.56;nan
19108;BME280;9686;48.832;9.126;2023-12-20T11:49:55;98466.53;;;7.39;nan
19108;BME280;9686;48.832;9.126;2023-12-20T11:52:21;98456.97;;;7.34;nan
19108;BME280;9686;48.832;9.126;2023-12-20T11:54:46;98453.53;;;7.35;nan
19108;BME280;9686;48.832;9.126;2023-12-20T11:57:13;98458.72;;;7.33;nan
19108;BME280;9686;48.832;9.126;2023-12-20T11:59:38;98448.41;;;7.41;nan
19108;BME280;9686;48.832;9.126;2023-12-20T12:02:04;98443.19;;;7.38;nan
19108;BME280;9686;48.832;9.126;2023-12-20T12:04:29;98438.97;;;7.49;nan
19108;BME280;9686;48.832;9.126;2023-12-20T12:06:54;98429.53;;;7.56;nan
19108;BME280;9686;48.832;9.126;2023-12-20T12:09:20;98429.56;;;7.59;nan
19108;BME280;9686;48.832;9.126;2023-12-20T12:11:45;98432.16;;;7.57;nan
19108;BME280;9686;48.832;9.126;2023-12-20T12:14:10;98419.16;;;7.56;nan
19108;BME280;9686;48.832;9.126;2023-12-20T12:16:36;98419.25;;;7.66;nan
19108;BME280;9686;48.832;9.126;2023-12-20T12:19:01;98423.59;;;7.67;nan
19108;BME280;9686;48.832;9.126;2023-12-20T12:21:27;98422.72;;;7.68;nan
19108;BME280;9686;48.832;9.126;2023-12-20T12:23:52;98416.72;;;7.77;nan
19108;BME280;9686;48.832;9.126;2023-12-20T12:26:18;98411.44;;;7.60;nan
19108;BME280;9686;48.832;9.126;2023-12-20T12:28:43;98405.41;;;7.67;nan
19108;BME280;9686;48.832;9.126;2023-12-20T12:31:13;98409.75;;;7.67;nan
19108;BME280;9686;48.832;9.126;2023-12-20T12:33:40;98407.94;;;7.57;nan
19108;BME280;9686;48.832;9.126;2023-12-20T12:36:07;98408.91;;;7.71;nan
19108;BME280;9686;48.832;9.126;2023-12-20T12:38:33;98415.94;;;7.83;nan
19108;BME280;9686;48.832;9.126;2023-12-20T12:41:00;98410.69;;;7.77;nan
19108;BME280;9686;48.832;9.126;2023-12-20T12:43:25;98406.53;;;7.97;nan
19108;BME280;9686;48.832;9.126;2023-12-20T12:45:50;98398.69;;;7.91;nan
19108;BME280;9686;48.832;9.126;2023-12-20T12:48:16;98411.53;;;7.76;nan
19108;BME280;9686;48.832;9.126;2023-12-20T12:50:41;98398.53;;;7.72;nan
19108;BME280;9686;48.832;9.126;2023-12-20T12:53:06;98407.13;;;7.65;nan
19108;BME280;9686;48.832;9.126;2023-12-20T12:55:32;98400.22;;;7.67;nan
19108;BME280;9686;48.832;9.126;2023-12-20T12:57:58;98408.00;;;7.64;nan
19108;BME280;9686;48.832;9.126;2023-12-20T13:00:23;98411.47;;;7.68;nan
19108;BME280;9686;48.832;9.126;2023-12-20T13:02:49;98410.59;;;7.64;nan
19108;BME280;9686;48.832;9.126;2023-12-20T13:05:15;98407.13;;;7.62;nan
19108;BME280;9686;48.832;9.126;2023-12-20T13:07:40;98405.22;;;7.46;nan
19108;BME280;9686;48.832;9.126;2023-12-20T13:10:06;98400.06;;;7.49;nan
19108;BME280;9686;48.832;9.126;2023-12-20T13:12:31;98398.34;;;7.53;nan
19108;BME280;9686;48.832;9.126;2023-12-20T13:14:57;98394.81;;;7.43;nan
19108;BME280;9686;48.832;9.126;2023-12-20T13:17:23;98400.88;;;7.42;nan
19108;BME280;9686;48.832;9.126;2023-12-20T13:19:48;98398.38;;;7.54;nan
19108;BME280;9686;48.832;9.126;2023-12-20T13:22:15;98393.25;;;7.59;nan
19108;BME280;9686;48.832;9.126;2023-12-20T13:24:40;98405.38;;;7.60;nan
19108;BME280;9686;48.832;9.126;2023-12-20T13:27:05;98401.03;;;7.59;nan
19108;BME280;9686;48.832;9.126;2023-12-20T13:29:31;98398.38;;;7.54;nan
19108;BME280;9686;48.832;9.126;2023-12-20T13:31:56;98395.75;;;7.51;nan
19108;BME280;9686;48.832;9.126;2023-12-20T13:34:22;98402.69;;;7.54;nan
19108;BME280;9686;48.832;9.126;2023-12-20T13:36:48;98401.03;;;7.60;nan
19108;BME280;9686;48.832;9.126;2023-12-20T13:39:15;98412.16;;;7.49;nan